createdAt,value
2017-11-10T00:00:57.025Z,6.80
2017-11-10T00:03:24.182Z,6.80
2017-11-10T00:05:50.617Z,6.80
2017-11-10T00:08:17.049Z,6.90
2017-11-10T00:10:43.497Z,6.90
2017-11-10T00:13:09.921Z,6.80
2017-11-10T00:15:36.370Z,6.90
2017-11-10T00:18:02.822Z,6.90
2017-11-10T00:20:29.247Z,6.90
2017-11-10T00:22:55.698Z,6.90
2017-11-10T00:25:22.118Z,6.80
2017-11-10T00:27:48.552Z,6.80
2017-11-10T00:30:14.961Z,6.80
2017-11-10T00:32:41.738Z,6.90
2017-11-10T00:35:08.871Z,6.90
2017-11-10T00:37:35.315Z,6.90
2017-11-10T00:40:01.832Z,6.90
2017-11-10T00:42:28.222Z,6.90
2017-11-10T00:44:54.633Z,6.90
2017-11-10T00:47:21.825Z,6.90
2017-11-10T00:49:48.276Z,6.90
2017-11-10T00:52:15.473Z,7.00
2017-11-10T00:54:42.179Z,6.90
2017-11-10T00:57:09.350Z,6.90
2017-11-10T00:59:35.792Z,6.90
2017-11-10T01:02:02.233Z,6.90
2017-11-10T01:04:29.428Z,7.00
2017-11-10T01:06:56.584Z,7.00
2017-11-10T01:09:23.016Z,6.90
2017-11-10T01:11:49.450Z,7.00
2017-11-10T01:14:15.878Z,7.00
2017-11-10T01:16:42.297Z,7.00
2017-11-10T01:19:08.715Z,7.00
2017-11-10T01:21:35.415Z,6.90
2017-11-10T01:24:02.580Z,7.00
2017-11-10T01:26:28.957Z,7.00
2017-11-10T01:28:55.368Z,7.00
2017-11-10T01:31:21.872Z,7.00
2017-11-10T01:33:48.531Z,7.00
2017-11-10T01:36:15.721Z,7.00
2017-11-10T01:38:42.876Z,7.00
2017-11-10T01:41:09.380Z,7.00
2017-11-10T01:43:35.817Z,7.00
2017-11-10T01:46:02.270Z,6.90
2017-11-10T01:48:30.480Z,7.00
2017-11-10T01:50:57.709Z,7.00
2017-11-10T01:53:24.120Z,6.90
2017-11-10T01:55:50.593Z,7.00
2017-11-10T01:58:17.027Z,7.00
2017-11-10T02:00:43.463Z,7.00
2017-11-10T02:03:09.900Z,7.00
2017-11-10T02:05:36.412Z,7.00
2017-11-10T02:08:02.898Z,7.00
2017-11-10T02:10:29.301Z,7.00
2017-11-10T02:12:56.497Z,7.00
2017-11-10T02:15:22.934Z,7.00
2017-11-10T02:17:49.438Z,7.10
2017-11-10T02:20:16.665Z,7.10
2017-11-10T02:22:43.089Z,7.00
2017-11-10T02:25:09.556Z,7.10
2017-11-10T02:27:35.995Z,7.10
2017-11-10T02:30:02.466Z,7.10
2017-11-10T02:32:30.441Z,7.10
2017-11-10T02:34:56.936Z,7.10
2017-11-10T02:37:23.388Z,7.10
2017-11-10T02:39:49.917Z,7.10
2017-11-10T02:42:16.356Z,7.10
2017-11-10T02:44:42.804Z,7.10
2017-11-10T02:47:10.038Z,7.10
2017-11-10T02:49:37.224Z,7.10
2017-11-10T02:52:03.722Z,7.10
2017-11-10T02:54:30.162Z,7.10
2017-11-10T02:56:56.764Z,7.10
2017-11-10T02:59:23.169Z,7.10
2017-11-10T03:01:49.584Z,7.20
2017-11-10T03:04:15.989Z,7.20
2017-11-10T03:06:42.401Z,7.20
2017-11-10T03:09:09.590Z,7.20
2017-11-10T03:11:36.082Z,7.20
2017-11-10T03:14:02.515Z,7.20
2017-11-10T03:16:28.993Z,6.90
2017-11-10T03:18:55.430Z,7.20
2017-11-10T03:21:21.874Z,7.20
2017-11-10T03:23:49.066Z,7.20
2017-11-10T03:26:15.504Z,7.20
2017-11-10T03:28:42.682Z,7.30
2017-11-10T03:31:09.115Z,7.20
2017-11-10T03:33:35.615Z,7.30
2017-11-10T03:36:02.045Z,7.20
2017-11-10T03:38:29.296Z,7.20
2017-11-10T03:40:56.032Z,7.20
2017-11-10T03:43:23.197Z,7.30
2017-11-10T03:45:49.642Z,7.20
2017-11-10T03:48:16.828Z,7.30
2017-11-10T03:50:43.277Z,7.30
2017-11-10T03:53:09.701Z,7.30
2017-11-10T03:55:36.174Z,7.30
2017-11-10T03:58:02.645Z,7.30
2017-11-10T04:00:29.193Z,7.30
2017-11-10T04:02:57.280Z,7.30
2017-11-10T04:05:23.680Z,7.30
2017-11-10T04:07:50.129Z,7.40
2017-11-10T04:10:16.600Z,7.30
2017-11-10T04:12:43.075Z,7.40
2017-11-10T04:15:10.347Z,7.40
2017-11-10T04:17:37.540Z,7.30
2017-11-10T04:20:03.986Z,7.30
2017-11-10T04:22:30.475Z,7.40
2017-11-10T04:24:57.000Z,7.30
2017-11-10T04:27:23.614Z,7.40
2017-11-10T04:29:50.075Z,7.40
2017-11-10T04:32:16.546Z,7.40
2017-11-10T04:34:42.992Z,7.30
2017-11-10T04:40:19.905Z,7.30
2017-11-10T04:42:46.970Z,7.40
2017-11-10T04:45:14.074Z,7.40
2017-11-10T04:47:40.406Z,7.40
2017-11-10T04:50:06.820Z,7.40
2017-11-10T04:52:33.190Z,7.40
2017-11-10T04:54:59.569Z,7.40
2017-11-10T04:57:25.924Z,7.40
2017-11-10T04:59:53.054Z,7.40
2017-11-10T05:02:19.391Z,7.30
2017-11-10T05:04:45.797Z,7.40
2017-11-10T05:07:12.214Z,7.40
2017-11-10T05:09:38.620Z,7.40
2017-11-10T05:12:05.025Z,7.40
2017-11-10T05:14:31.456Z,7.40
2017-11-10T05:16:58.614Z,7.40
2017-11-10T05:19:25.012Z,7.40
2017-11-10T05:21:51.429Z,7.40
2017-11-10T05:24:17.797Z,7.50
2017-11-10T05:26:44.180Z,7.60
2017-11-10T05:29:11.299Z,7.50
2017-11-10T05:31:37.755Z,7.50
2017-11-10T05:34:04.968Z,7.40
2017-11-10T05:36:31.396Z,7.40
2017-11-10T05:38:58.656Z,7.40
2017-11-10T05:41:25.051Z,7.40
2017-11-10T05:43:51.599Z,7.50
2017-11-10T05:46:18.082Z,7.50
2017-11-10T05:48:44.479Z,7.50
2017-11-10T05:51:10.865Z,7.50
2017-11-10T05:53:38.023Z,7.50
2017-11-10T05:56:05.465Z,7.60
2017-11-10T05:58:31.884Z,7.50
2017-11-10T06:01:03.236Z,7.50
2017-11-10T06:03:29.683Z,7.50
2017-11-10T06:05:56.098Z,7.50
2017-11-10T06:08:29.390Z,7.50
2017-11-10T06:10:55.802Z,7.60
2017-11-10T06:13:22.213Z,7.60
2017-11-10T06:15:49.376Z,7.60
2017-11-10T06:18:16.540Z,7.60
2017-11-10T06:20:43.821Z,7.70
2017-11-10T06:23:11.094Z,7.70
2017-11-10T06:25:37.693Z,7.60
2017-11-10T06:28:05.065Z,7.60
2017-11-10T06:30:31.807Z,7.60
2017-11-10T06:32:58.511Z,7.40
2017-11-10T06:35:25.038Z,7.60
2017-11-10T06:37:51.630Z,7.60
2017-11-10T06:40:18.392Z,7.60
2017-11-10T06:42:45.147Z,7.50
2017-11-10T06:45:11.816Z,7.50
2017-11-10T06:47:39.230Z,7.50
2017-11-10T06:50:06.024Z,7.50
2017-11-10T06:52:32.619Z,7.50
2017-11-10T06:54:59.129Z,7.60
2017-11-10T06:57:25.645Z,7.50
2017-11-10T06:59:52.272Z,7.50
2017-11-10T07:02:19.584Z,7.60
2017-11-10T07:04:46.556Z,7.50
2017-11-10T07:07:13.298Z,7.50
2017-11-10T07:09:39.870Z,7.50
2017-11-10T07:12:06.622Z,7.50
2017-11-10T07:14:33.984Z,7.50
2017-11-10T07:17:00.650Z,7.50
2017-11-10T07:19:27.128Z,7.50
2017-11-10T07:21:54.348Z,7.50
2017-11-10T07:24:20.891Z,7.50
2017-11-10T07:26:47.377Z,7.50
2017-11-10T07:29:13.977Z,7.50
2017-11-10T07:31:41.974Z,7.50
2017-11-10T07:34:09.267Z,7.60
2017-11-10T07:36:36.511Z,7.60
2017-11-10T07:39:03.067Z,7.60
2017-11-10T07:41:29.628Z,7.60
2017-11-10T07:43:56.071Z,7.60
2017-11-10T07:46:23.275Z,7.70
2017-11-10T07:48:49.713Z,7.70
2017-11-10T07:51:16.286Z,7.70
2017-11-10T07:53:43.434Z,7.80
2017-11-10T07:56:09.827Z,7.70
2017-11-10T07:58:37.649Z,7.80
2017-11-10T08:01:06.051Z,7.80
2017-11-10T08:03:33.740Z,7.80
2017-11-10T08:06:01.751Z,7.90
2017-11-10T08:08:30.015Z,7.80
2017-11-10T08:10:56.786Z,7.80
2017-11-10T08:13:23.224Z,7.80
2017-11-10T08:15:49.802Z,7.90
2017-11-10T08:18:16.293Z,7.90
2017-11-10T08:20:42.766Z,7.90
2017-11-10T08:23:09.173Z,7.90
2017-11-10T08:25:35.724Z,7.90
2017-11-10T08:28:02.202Z,8.00
2017-11-10T08:30:28.698Z,8.00
2017-11-10T08:32:55.926Z,8.10
2017-11-10T08:35:22.401Z,8.10
2017-11-10T08:37:49.737Z,8.20
2017-11-10T08:40:16.203Z,8.10
2017-11-10T08:42:42.740Z,8.20
2017-11-10T08:45:09.327Z,8.20
2017-11-10T08:47:35.929Z,8.20
2017-11-10T08:50:02.444Z,8.70
2017-11-10T08:52:28.896Z,8.10
2017-11-10T08:54:55.393Z,8.20
2017-11-10T08:57:22.284Z,8.30
2017-11-10T08:59:48.766Z,8.40
2017-11-10T09:02:15.211Z,8.50
2017-11-10T09:04:41.846Z,8.60
2017-11-10T09:07:08.324Z,8.70
2017-11-10T09:09:34.976Z,8.80
2017-11-10T09:12:01.530Z,8.80
2017-11-10T09:14:28.096Z,8.80
2017-11-10T09:16:54.511Z,8.90
2017-11-10T09:19:21.044Z,8.90
2017-11-10T09:21:47.592Z,8.90
2017-11-10T09:24:14.003Z,8.90
2017-11-10T09:26:41.292Z,8.90
2017-11-10T09:32:20.467Z,8.90
2017-11-10T09:35:05.023Z,9.00
2017-11-10T09:37:38.437Z,9.00
2017-11-10T09:40:05.710Z,9.00
2017-11-10T09:45:37.007Z,9.20
2017-11-10T09:48:09.652Z,9.40
2017-11-10T09:50:42.380Z,9.30
2017-11-10T09:53:15.018Z,9.40
2017-11-10T09:55:45.657Z,9.50
2017-11-10T09:58:19.601Z,9.60
2017-11-10T10:00:48.773Z,9.60
2017-11-10T10:03:22.395Z,9.60
2017-11-10T10:05:55.687Z,9.60
2017-11-10T10:11:48.563Z,9.80
2017-11-10T10:14:15.043Z,10.10
2017-11-10T10:16:53.370Z,10.30
2017-11-10T10:19:26.695Z,10.30
2017-11-10T10:24:57.837Z,10.20
2017-11-10T10:27:24.411Z,10.20
2017-11-10T10:29:52.550Z,10.10
2017-11-10T10:32:19.286Z,10.20
2017-11-10T10:34:46.619Z,10.20
2017-11-10T10:37:13.100Z,10.20
2017-11-10T10:39:39.544Z,10.30
2017-11-10T10:42:06.137Z,10.20
2017-11-10T10:44:33.485Z,10.10
2017-11-10T10:47:00.022Z,10.00
2017-11-10T10:49:26.528Z,9.90
2017-11-10T10:51:52.950Z,9.80
2017-11-10T10:54:19.375Z,9.70
2017-11-10T10:56:45.929Z,9.70
2017-11-10T10:59:12.407Z,9.70
2017-11-10T11:01:38.887Z,9.80
2017-11-10T11:04:05.487Z,9.80
2017-11-10T11:06:32.702Z,9.90
2017-11-10T11:08:59.145Z,9.80
2017-11-10T11:11:25.632Z,9.80
2017-11-10T11:13:52.107Z,9.80
2017-11-10T11:16:19.313Z,9.80
2017-11-10T11:18:45.745Z,9.80
2017-11-10T11:21:12.222Z,9.80
2017-11-10T11:23:38.724Z,9.80
2017-11-10T11:26:05.204Z,9.80
2017-11-10T11:28:31.630Z,9.90
2017-11-10T11:30:58.633Z,9.90
2017-11-10T11:33:25.702Z,9.90
2017-11-10T11:35:52.553Z,9.90
2017-11-10T11:38:20.201Z,9.80
2017-11-10T11:40:47.016Z,9.70
2017-11-10T11:43:14.563Z,9.60
2017-11-10T11:45:41.440Z,9.60
2017-11-10T11:48:08.382Z,9.50
2017-11-10T11:50:35.420Z,9.40
2017-11-10T11:53:01.942Z,9.40
2017-11-10T11:55:28.427Z,9.20
2017-11-10T11:57:54.893Z,9.20
2017-11-10T12:00:21.355Z,9.10
2017-11-10T12:02:47.822Z,9.10
2017-11-10T12:05:14.321Z,9.20
2017-11-10T12:07:41.506Z,9.30
2017-11-10T12:10:07.981Z,9.30
2017-11-10T12:12:34.488Z,9.40
2017-11-10T12:15:00.904Z,9.50
2017-11-10T12:17:27.363Z,9.60
2017-11-10T12:19:53.813Z,9.60
2017-11-10T12:22:20.357Z,9.70
2017-11-10T12:24:47.604Z,9.70
2017-11-10T12:27:14.162Z,9.30
2017-11-10T12:29:41.590Z,9.80
2017-11-10T12:32:08.036Z,9.70
2017-11-10T12:34:35.330Z,9.90
2017-11-10T12:37:02.522Z,9.80
2017-11-10T12:39:29.806Z,9.70
2017-11-10T12:41:57.025Z,9.70
2017-11-10T12:44:23.501Z,9.70
2017-11-10T12:46:50.105Z,9.60
2017-11-10T12:49:16.531Z,9.50
2017-11-10T12:51:43.836Z,9.40
2017-11-10T12:54:11.591Z,9.40
2017-11-10T12:56:38.237Z,9.20
2017-11-10T12:59:04.704Z,9.70
2017-11-10T13:01:31.273Z,10.00
2017-11-10T13:03:57.689Z,10.20
2017-11-10T13:06:24.129Z,10.40
2017-11-10T13:08:51.315Z,10.70
2017-11-10T13:11:17.749Z,10.70
2017-11-10T13:13:44.173Z,10.50
2017-11-10T13:16:10.668Z,10.50
2017-11-10T13:18:37.114Z,10.40
2017-11-10T13:21:03.648Z,10.30
2017-11-10T13:23:30.133Z,10.20
2017-11-10T13:25:56.613Z,10.10
2017-11-10T13:28:23.105Z,10.10
2017-11-10T13:30:49.608Z,10.10
2017-11-10T13:33:16.059Z,10.20
2017-11-10T13:35:42.540Z,10.30
2017-11-10T13:38:09.069Z,10.40
2017-11-10T13:40:35.521Z,10.50
2017-11-10T13:43:02.136Z,10.80
2017-11-10T13:45:29.379Z,11.40
2017-11-10T13:47:56.585Z,11.60
2017-11-10T13:50:23.830Z,11.60
2017-11-10T13:52:52.137Z,11.50
2017-11-10T13:55:18.475Z,11.50
2017-11-10T13:57:44.934Z,11.60
2017-11-10T14:00:11.397Z,11.50
2017-11-10T14:02:37.856Z,11.40
2017-11-10T14:05:04.359Z,11.40
2017-11-10T14:07:32.488Z,11.40
2017-11-10T14:09:59.713Z,11.60
2017-11-10T14:12:27.654Z,11.50
2017-11-10T14:14:54.100Z,11.60
2017-11-10T14:17:20.569Z,11.50
2017-11-10T14:19:47.013Z,11.30
2017-11-10T14:22:14.230Z,10.80
2017-11-10T14:24:40.725Z,10.70
2017-11-10T14:27:07.109Z,10.30
2017-11-10T14:29:34.376Z,10.20
2017-11-10T14:32:00.962Z,10.20
2017-11-10T14:34:27.429Z,10.10
2017-11-10T14:36:53.860Z,10.10
2017-11-10T14:39:20.273Z,9.90
2017-11-10T14:41:46.760Z,10.00
2017-11-10T14:44:14.141Z,9.50
2017-11-10T14:46:43.367Z,9.90
2017-11-10T14:49:10.002Z,9.90
2017-11-10T14:51:36.465Z,9.90
2017-11-10T14:54:02.904Z,9.90
2017-11-10T14:59:05.436Z,9.50
2017-11-10T15:01:34.895Z,9.30
2017-11-10T15:04:01.428Z,9.30
2017-11-10T15:06:29.635Z,9.00
2017-11-10T15:08:56.969Z,9.00
2017-11-10T15:11:24.208Z,9.20
2017-11-10T15:13:52.189Z,9.10
2017-11-10T15:16:18.719Z,9.10
2017-11-10T15:18:45.626Z,9.10
2017-11-10T15:21:13.205Z,9.10
2017-11-10T15:23:40.829Z,9.00
2017-11-10T15:26:07.377Z,8.80
2017-11-10T15:28:34.651Z,8.80
2017-11-10T15:31:01.115Z,8.70
2017-11-10T15:33:27.565Z,8.70
2017-11-10T15:35:54.766Z,8.50
2017-11-10T15:38:22.028Z,8.40
2017-11-10T15:40:51.764Z,8.30
2017-11-10T15:43:19.057Z,8.20
2017-11-10T15:45:46.188Z,8.10
2017-11-10T15:48:13.055Z,8.10
2017-11-10T15:50:40.193Z,7.90
2017-11-10T15:53:07.693Z,7.70
2017-11-10T15:55:34.882Z,7.60
2017-11-10T15:58:01.392Z,7.60
2017-11-10T16:00:27.935Z,7.50
2017-11-10T16:02:54.957Z,7.50
2017-11-10T16:05:21.480Z,7.40
2017-11-10T16:07:48.171Z,6.80
2017-11-10T16:10:15.103Z,7.10
2017-11-10T16:12:42.870Z,7.00
2017-11-10T16:15:09.305Z,6.90
2017-11-10T16:17:36.480Z,6.90
2017-11-10T16:20:03.016Z,6.90
2017-11-10T16:22:30.034Z,6.90
2017-11-10T16:24:56.648Z,6.80
2017-11-10T16:27:23.062Z,6.70
2017-11-10T16:29:49.488Z,6.70
2017-11-10T16:32:16.602Z,6.90
2017-11-10T16:34:42.960Z,6.90
2017-11-10T16:37:09.353Z,6.90
2017-11-10T16:39:35.775Z,6.90
2017-11-10T16:42:02.886Z,6.90
2017-11-10T16:44:29.289Z,6.80
2017-11-10T16:46:55.669Z,6.70
2017-11-10T16:49:22.049Z,6.60
2017-11-10T16:51:48.536Z,6.50
2017-11-10T16:54:14.912Z,6.40
2017-11-10T16:56:41.269Z,6.40
2017-11-10T16:59:07.775Z,6.40
2017-11-10T17:04:28.032Z,6.40
2017-11-10T17:06:54.437Z,6.30
2017-11-10T17:09:21.550Z,6.20
2017-11-10T17:11:48.061Z,6.10
2017-11-10T17:14:14.495Z,6.10
2017-11-10T17:16:41.792Z,6.10
2017-11-10T17:19:08.177Z,6.10
2017-11-10T17:21:34.708Z,6.20
2017-11-10T17:24:01.862Z,6.20
2017-11-10T17:26:28.306Z,6.10
2017-11-10T17:28:54.720Z,6.20
2017-11-10T17:31:21.145Z,6.10
2017-11-10T17:33:47.624Z,6.20
2017-11-10T17:36:14.025Z,6.10
2017-11-10T17:38:41.232Z,6.00
2017-11-10T17:41:07.625Z,5.90
2017-11-10T17:43:34.074Z,5.90
2017-11-10T17:46:00.461Z,5.80
2017-11-10T17:48:26.882Z,5.80
2017-11-10T17:50:53.330Z,5.70
2017-11-10T17:53:19.717Z,5.70
2017-11-10T17:55:46.120Z,5.70
2017-11-10T17:58:12.695Z,5.80
2017-11-10T18:00:39.241Z,5.80
2017-11-10T18:03:05.786Z,5.80
2017-11-10T18:05:32.218Z,5.70
2017-11-10T18:07:58.641Z,5.60
2017-11-10T18:10:25.044Z,5.60
2017-11-10T18:12:51.525Z,5.60
2017-11-10T18:15:17.957Z,5.50
2017-11-10T18:17:44.749Z,5.60
2017-11-10T18:20:11.946Z,5.50
2017-11-10T18:22:39.113Z,5.50
2017-11-10T18:25:05.554Z,5.50
2017-11-10T18:27:32.733Z,5.50
2017-11-10T18:29:59.207Z,5.50
2017-11-10T18:32:25.611Z,5.40
2017-11-10T18:34:52.749Z,5.30
2017-11-10T18:37:19.173Z,5.30
2017-11-10T18:39:45.713Z,5.40
2017-11-10T18:42:12.092Z,5.40
2017-11-10T18:44:38.653Z,5.30
2017-11-10T18:47:05.056Z,5.30
2017-11-10T18:49:32.429Z,5.30
2017-11-10T18:51:58.826Z,5.30
2017-11-10T18:54:25.323Z,5.30
2017-11-10T18:56:51.709Z,5.20
2017-11-10T18:59:18.968Z,5.20
2017-11-10T19:01:46.081Z,5.20
2017-11-10T19:04:12.522Z,5.10
2017-11-10T19:06:38.954Z,5.10
2017-11-10T19:09:05.390Z,5.10
2017-11-10T19:11:31.820Z,5.00
2017-11-10T19:13:58.185Z,5.00
2017-11-10T19:16:25.301Z,5.00
2017-11-10T19:18:51.711Z,4.90
2017-11-10T19:21:18.156Z,4.90
2017-11-10T19:23:44.578Z,4.80
2017-11-10T19:26:10.990Z,4.80
2017-11-10T19:28:38.898Z,4.80
2017-11-10T19:31:06.089Z,4.90
2017-11-10T19:33:32.489Z,4.90
2017-11-10T19:35:58.897Z,4.90
2017-11-10T19:38:25.297Z,4.90
2017-11-10T19:40:52.371Z,4.80
2017-11-10T19:43:18.728Z,4.80
2017-11-10T19:45:45.092Z,4.80
2017-11-10T19:48:11.500Z,4.70
2017-11-10T19:50:37.848Z,4.80
2017-11-10T19:53:11.305Z,4.70
2017-11-10T19:55:37.725Z,4.60
2017-11-10T19:58:04.240Z,4.70
2017-11-10T20:00:30.593Z,4.70
2017-11-10T20:02:56.970Z,4.70
2017-11-10T20:05:23.357Z,4.70
2017-11-10T20:07:50.473Z,4.70
2017-11-10T20:10:16.845Z,4.60
2017-11-10T20:12:43.941Z,4.60
2017-11-10T20:15:10.444Z,4.60
2017-11-10T20:17:36.785Z,4.60
2017-11-10T20:20:03.961Z,4.50
2017-11-10T20:22:31.087Z,4.50
2017-11-10T20:24:57.442Z,4.40
2017-11-10T20:27:23.813Z,4.20
2017-11-10T20:29:50.889Z,4.30
2017-11-10T20:32:17.286Z,4.20
2017-11-10T20:34:43.750Z,4.20
2017-11-10T20:37:10.093Z,4.10
2017-11-10T20:39:36.491Z,4.00
2017-11-10T20:42:02.944Z,3.90
2017-11-10T20:44:29.322Z,3.80
2017-11-10T20:46:56.442Z,3.60
2017-11-10T20:49:22.829Z,3.60
2017-11-10T20:51:49.272Z,3.60
2017-11-10T20:54:16.408Z,3.70
2017-11-10T20:56:42.935Z,3.70
2017-11-10T20:59:10.101Z,3.80
2017-11-10T21:01:36.483Z,3.80
2017-11-10T21:04:03.046Z,3.90
2017-11-10T21:06:29.407Z,4.00
2017-11-10T21:08:55.816Z,4.00
2017-11-10T21:11:22.938Z,4.10
2017-11-10T21:13:49.319Z,4.10
2017-11-10T21:16:15.721Z,4.20
2017-11-10T21:18:42.086Z,4.20
2017-11-10T21:21:08.571Z,4.20
2017-11-10T21:23:34.991Z,4.30
2017-11-10T21:26:01.425Z,4.50
2017-11-10T21:28:28.573Z,4.70
2017-11-10T21:30:54.985Z,4.70
2017-11-10T21:33:21.369Z,4.90
2017-11-10T21:35:47.721Z,4.90
2017-11-10T21:38:14.181Z,5.10
2017-11-10T21:40:40.623Z,5.30
2017-11-10T21:43:06.989Z,5.40
2017-11-10T21:45:34.065Z,5.50
2017-11-10T21:48:00.441Z,5.50
2017-11-10T21:50:26.828Z,5.50
2017-11-10T21:52:53.969Z,5.30
2017-11-10T21:55:21.826Z,5.10
2017-11-10T21:57:48.230Z,5.10
2017-11-10T22:00:14.665Z,5.10
2017-11-10T22:02:41.760Z,5.00
2017-11-10T22:05:08.173Z,4.90
2017-11-10T22:07:34.565Z,4.90
2017-11-10T22:10:01.098Z,4.70
2017-11-10T22:12:28.260Z,4.50
2017-11-10T22:14:54.695Z,4.50
2017-11-10T22:17:21.069Z,4.40
2017-11-10T22:19:47.439Z,4.30
2017-11-10T22:22:14.605Z,4.20
2017-11-10T22:24:41.741Z,4.10
2017-11-10T22:27:08.125Z,4.00
2017-11-10T22:29:34.502Z,4.30
2017-11-10T22:32:01.037Z,4.00
2017-11-10T22:34:27.555Z,4.00
2017-11-10T22:36:53.953Z,3.90
2017-11-10T22:39:20.337Z,3.90
2017-11-10T22:41:47.495Z,3.90
2017-11-10T22:44:13.913Z,3.90
2017-11-10T22:46:41.041Z,4.00
2017-11-10T22:49:07.422Z,3.90
2017-11-10T22:51:34.534Z,4.10
2017-11-10T22:54:00.949Z,4.10
2017-11-10T22:56:27.392Z,4.20
2017-11-10T22:58:53.822Z,4.10
2017-11-10T23:01:22.040Z,4.00
2017-11-10T23:03:49.153Z,3.90
2017-11-10T23:06:15.495Z,3.90
2017-11-10T23:08:41.841Z,3.80
2017-11-10T23:11:08.245Z,4.80
2017-11-10T23:13:34.629Z,3.80
2017-11-10T23:16:01.778Z,3.80
2017-11-10T23:18:28.158Z,3.70
2017-11-10T23:20:55.293Z,3.70
2017-11-10T23:23:21.798Z,3.70
2017-11-10T23:25:48.188Z,3.70
2017-11-10T23:28:14.560Z,3.70
2017-11-10T23:30:41.725Z,3.80
2017-11-10T23:33:08.851Z,3.70
2017-11-10T23:35:35.281Z,3.70
2017-11-10T23:38:01.660Z,3.80
2017-11-10T23:40:28.032Z,3.90
2017-11-10T23:42:55.129Z,4.00
2017-11-10T23:45:21.628Z,4.00
2017-11-10T23:47:48.737Z,4.10
2017-11-10T23:50:15.086Z,4.00
2017-11-10T23:52:41.479Z,4.10
2017-11-10T23:55:07.854Z,4.20
2017-11-10T23:57:34.277Z,4.20
